sensor_id;sensor_type;location;lat;lon;timestamp;P1;durP1;ratioP1;P2;durP2;ratioP2
35675;SDS011;21790;42.668;23.298;2024-01-16T06:07:49;4.05;;;2.50;;
35675;SDS011;21790;42.668;23.298;2024-01-16T06:12:57;2.70;;;2.08;;
35675;SDS011;21790;42.668;23.298;2024-01-16T06:15:43;2.75;;;2.20;;
35675;SDS011;21790;42.668;23.298;2024-01-16T06:24:36;2.70;;;2.20;;
35675;SDS011;21790;42.668;23.298;2024-01-16T06:38:24;2.97;;;2.55;;
35675;SDS011;21790;42.668;23.298;2024-01-16T06:41:13;4.55;;;2.92;;
35675;SDS011;21790;42.668;23.298;2024-01-16T06:43:41;7.90;;;3.83;;
35675;SDS011;21790;42.668;23.298;2024-01-16T06:46:12;4.15;;;3.10;;
35675;SDS011;21790;42.668;23.298;2024-01-16T06:48:57;4.13;;;2.30;;
35675;SDS011;21790;42.668;23.298;2024-01-16T06:51:27;4.22;;;2.42;;
35675;SDS011;21790;42.668;23.298;2024-01-16T06:53:58;3.38;;;2.47;;
35675;SDS011;21790;42.668;23.298;2024-01-16T06:56:27;8.40;;;4.28;;
35675;SDS011;21790;42.668;23.298;2024-01-16T07:01:33;3.67;;;2.30;;
35675;SDS011;21790;42.668;23.298;2024-01-16T07:04:06;4.75;;;2.40;;
35675;SDS011;21790;42.668;23.298;2024-01-16T07:06:46;3.55;;;2.08;;
35675;SDS011;21790;42.668;23.298;2024-01-16T07:09:33;4.72;;;3.00;;
35675;SDS011;21790;42.668;23.298;2024-01-16T07:12:21;6.38;;;3.60;;
35675;SDS011;21790;42.668;23.298;2024-01-16T07:14:56;6.47;;;2.92;;
35675;SDS011;21790;42.668;23.298;2024-01-16T07:17:23;5.00;;;2.95;;
35675;SDS011;21790;42.668;23.298;2024-01-16T07:19:51;4.55;;;2.63;;
35675;SDS011;21790;42.668;23.298;2024-01-16T07:22:24;4.53;;;3.00;;
35675;SDS011;21790;42.668;23.298;2024-01-16T07:24:52;3.35;;;2.10;;
35675;SDS011;21790;42.668;23.298;2024-01-16T07:27:21;5.25;;;1.65;;
35675;SDS011;21790;42.668;23.298;2024-01-16T07:29:49;2.30;;;1.80;;
35675;SDS011;21790;42.668;23.298;2024-01-16T07:32:16;3.08;;;2.22;;
35675;SDS011;21790;42.668;23.298;2024-01-16T07:34:46;4.05;;;2.10;;
35675;SDS011;21790;42.668;23.298;2024-01-16T07:37:16;2.33;;;1.73;;
35675;SDS011;21790;42.668;23.298;2024-01-16T07:39:42;4.57;;;2.20;;
35675;SDS011;21790;42.668;23.298;2024-01-16T07:42:10;3.58;;;2.30;;
35675;SDS011;21790;42.668;23.298;2024-01-16T07:44:41;4.50;;;2.92;;
35675;SDS011;21790;42.668;23.298;2024-01-16T07:47:13;2.90;;;2.10;;
35675;SDS011;21790;42.668;23.298;2024-01-16T07:49:42;5.60;;;2.30;;
35675;SDS011;21790;42.668;23.298;2024-01-16T07:52:12;3.30;;;2.22;;
35675;SDS011;21790;42.668;23.298;2024-01-16T07:54:39;3.60;;;2.53;;
35675;SDS011;21790;42.668;23.298;2024-01-16T07:57:06;4.57;;;2.45;;
35675;SDS011;21790;42.668;23.298;2024-01-16T07:59:35;3.90;;;2.30;;
35675;SDS011;21790;42.668;23.298;2024-01-16T08:02:04;3.90;;;2.42;;
35675;SDS011;21790;42.668;23.298;2024-01-16T08:04:35;4.25;;;2.13;;
35675;SDS011;21790;42.668;23.298;2024-01-16T08:07:17;3.95;;;2.50;;
35675;SDS011;21790;42.668;23.298;2024-01-16T08:10:08;3.53;;;1.98;;
35675;SDS011;21790;42.668;23.298;2024-01-16T08:12:39;3.17;;;2.20;;
35675;SDS011;21790;42.668;23.298;2024-01-16T08:15:11;3.75;;;1.90;;
35675;SDS011;21790;42.668;23.298;2024-01-16T08:17:45;4.32;;;2.22;;
35675;SDS011;21790;42.668;23.298;2024-01-16T08:20:23;5.53;;;2.33;;
35675;SDS011;21790;42.668;23.298;2024-01-16T08:23:02;3.67;;;2.10;;
35675;SDS011;21790;42.668;23.298;2024-01-16T08:25:32;4.18;;;2.75;;
35675;SDS011;21790;42.668;23.298;2024-01-16T08:27:59;3.95;;;2.63;;
35675;SDS011;21790;42.668;23.298;2024-01-16T08:33:05;5.53;;;2.73;;
35675;SDS011;21790;42.668;23.298;2024-01-16T08:35:31;4.35;;;2.15;;
35675;SDS011;21790;42.668;23.298;2024-01-16T08:38:05;7.07;;;2.60;;
35675;SDS011;21790;42.668;23.298;2024-01-16T08:40:31;9.15;;;3.17;;
35675;SDS011;21790;42.668;23.298;2024-01-16T08:43:02;4.60;;;2.20;;
35675;SDS011;21790;42.668;23.298;2024-01-16T08:45:30;2.63;;;2.35;;
35675;SDS011;21790;42.668;23.298;2024-01-16T08:48:00;9.15;;;4.32;;
35675;SDS011;21790;42.668;23.298;2024-01-16T08:50:48;4.57;;;2.42;;
35675;SDS011;21790;42.668;23.298;2024-01-16T08:53:31;2.25;;;1.90;;
35675;SDS011;21790;42.668;23.298;2024-01-16T08:56:00;3.35;;;2.33;;
35675;SDS011;21790;42.668;23.298;2024-01-16T09:01:02;2.95;;;2.05;;
35675;SDS011;21790;42.668;23.298;2024-01-16T09:03:33;8.15;;;2.38;;
35675;SDS011;21790;42.668;23.298;2024-01-16T09:06:00;5.90;;;2.80;;
35675;SDS011;21790;42.668;23.298;2024-01-16T09:08:26;4.88;;;2.25;;
35675;SDS011;21790;42.668;23.298;2024-01-16T09:17:28;4.72;;;2.45;;
35675;SDS011;21790;42.668;23.298;2024-01-16T09:20:19;2.67;;;1.85;;
35675;SDS011;21790;42.668;23.298;2024-01-16T09:22:47;2.63;;;1.80;;
35675;SDS011;21790;42.668;23.298;2024-01-16T09:25:14;3.03;;;1.98;;
35675;SDS011;21790;42.668;23.298;2024-01-16T09:27:41;3.30;;;2.00;;
35675;SDS011;21790;42.668;23.298;2024-01-16T09:30:07;4.40;;;2.40;;
35675;SDS011;21790;42.668;23.298;2024-01-16T09:32:34;2.42;;;1.90;;
35675;SDS011;21790;42.668;23.298;2024-01-16T09:35:07;6.70;;;2.13;;
35675;SDS011;21790;42.668;23.298;2024-01-16T09:37:37;5.07;;;2.25;;
35675;SDS011;21790;42.668;23.298;2024-01-16T09:40:05;5.72;;;2.30;;
35675;SDS011;21790;42.668;23.298;2024-01-16T09:42:34;2.83;;;2.28;;
35675;SDS011;21790;42.668;23.298;2024-01-16T09:45:04;3.13;;;1.83;;
35675;SDS011;21790;42.668;23.298;2024-01-16T09:47:33;3.00;;;1.95;;
35675;SDS011;21790;42.668;23.298;2024-01-16T09:50:04;5.70;;;2.65;;
35675;SDS011;21790;42.668;23.298;2024-01-16T09:54:57;4.10;;;2.60;;
35675;SDS011;21790;42.668;23.298;2024-01-16T09:57:24;6.60;;;3.30;;
35675;SDS011;21790;42.668;23.298;2024-01-16T09:59:53;5.43;;;2.75;;
35675;SDS011;21790;42.668;23.298;2024-01-16T10:02:23;5.32;;;2.92;;
35675;SDS011;21790;42.668;23.298;2024-01-16T10:07:23;5.72;;;2.83;;
35675;SDS011;21790;42.668;23.298;2024-01-16T10:09:57;6.10;;;2.38;;
35675;SDS011;21790;42.668;23.298;2024-01-16T10:12:23;3.05;;;1.98;;
35675;SDS011;21790;42.668;23.298;2024-01-16T10:14:50;3.88;;;2.33;;
35675;SDS011;21790;42.668;23.298;2024-01-16T10:17:20;3.50;;;2.40;;
35675;SDS011;21790;42.668;23.298;2024-01-16T10:19:48;3.63;;;2.20;;
35675;SDS011;21790;42.668;23.298;2024-01-16T10:22:19;4.18;;;2.70;;
35675;SDS011;21790;42.668;23.298;2024-01-16T10:25:13;4.30;;;2.70;;
35675;SDS011;21790;42.668;23.298;2024-01-16T10:30:24;4.18;;;2.13;;
35675;SDS011;21790;42.668;23.298;2024-01-16T10:32:52;3.05;;;1.95;;
35675;SDS011;21790;42.668;23.298;2024-01-16T10:35:39;5.13;;;2.53;;
35675;SDS011;21790;42.668;23.298;2024-01-16T10:38:06;3.75;;;2.38;;
35675;SDS011;21790;42.668;23.298;2024-01-16T10:40:34;2.28;;;1.75;;
35675;SDS011;21790;42.668;23.298;2024-01-16T10:43:23;5.13;;;2.25;;
35675;SDS011;21790;42.668;23.298;2024-01-16T10:46:14;3.70;;;2.35;;
35675;SDS011;21790;42.668;23.298;2024-01-16T10:54:53;4.07;;;1.92;;
35675;SDS011;21790;42.668;23.298;2024-01-16T10:57:40;4.57;;;2.47;;
35675;SDS011;21790;42.668;23.298;2024-01-16T11:08:38;2.92;;;1.85;;
35675;SDS011;21790;42.668;23.298;2024-01-16T11:11:07;3.13;;;1.90;;
35675;SDS011;21790;42.668;23.298;2024-01-16T11:16:52;6.22;;;2.17;;
35675;SDS011;21790;42.668;23.298;2024-01-16T11:19:22;5.43;;;2.85;;
35675;SDS011;21790;42.668;23.298;2024-01-16T11:21:51;4.70;;;2.95;;
35675;SDS011;21790;42.668;23.298;2024-01-16T11:30:28;6.57;;;3.70;;
35675;SDS011;21790;42.668;23.298;2024-01-16T11:32:57;7.40;;;3.95;;
35675;SDS011;21790;42.668;23.298;2024-01-16T11:35:35;10.98;;;3.78;;
35675;SDS011;21790;42.668;23.298;2024-01-16T11:38:16;8.80;;;4.18;;
35675;SDS011;21790;42.668;23.298;2024-01-16T11:40:49;7.68;;;4.38;;
35675;SDS011;21790;42.668;23.298;2024-01-16T11:43:39;4.80;;;3.72;;
35675;SDS011;21790;42.668;23.298;2024-01-16T11:46:11;5.10;;;3.05;;
35675;SDS011;21790;42.668;23.298;2024-01-16T11:48:38;5.78;;;3.50;;
35675;SDS011;21790;42.668;23.298;2024-01-16T11:53:39;6.32;;;3.85;;
35675;SDS011;21790;42.668;23.298;2024-01-16T12:01:23;8.70;;;4.40;;
35675;SDS011;21790;42.668;23.298;2024-01-16T12:04:12;8.25;;;3.80;;
35675;SDS011;21790;42.668;23.298;2024-01-16T12:06:56;9.40;;;4.78;;
35675;SDS011;21790;42.668;23.298;2024-01-16T12:09:26;8.50;;;3.88;;
35675;SDS011;21790;42.668;23.298;2024-01-16T12:11:59;5.88;;;3.50;;
35675;SDS011;21790;42.668;23.298;2024-01-16T12:17:10;5.57;;;3.63;;
35675;SDS011;21790;42.668;23.298;2024-01-16T12:19:42;4.97;;;3.15;;
35675;SDS011;21790;42.668;23.298;2024-01-16T12:22:09;5.75;;;3.25;;
35675;SDS011;21790;42.668;23.298;2024-01-16T12:24:37;6.38;;;3.55;;
35675;SDS011;21790;42.668;23.298;2024-01-16T12:27:05;2.92;;;2.42;;
35675;SDS011;21790;42.668;23.298;2024-01-16T12:29:34;5.20;;;3.13;;
35675;SDS011;21790;42.668;23.298;2024-01-16T12:32:07;8.35;;;3.10;;
35675;SDS011;21790;42.668;23.298;2024-01-16T12:34:46;7.70;;;3.15;;
35675;SDS011;21790;42.668;23.298;2024-01-16T12:37:13;7.10;;;4.38;;
35675;SDS011;21790;42.668;23.298;2024-01-16T12:40:00;7.80;;;3.45;;
35675;SDS011;21790;42.668;23.298;2024-01-16T12:42:28;3.53;;;2.40;;
35675;SDS011;21790;42.668;23.298;2024-01-16T12:44:57;2.83;;;2.20;;
35675;SDS011;21790;42.668;23.298;2024-01-16T12:47:28;5.75;;;2.80;;
35675;SDS011;21790;42.668;23.298;2024-01-16T12:49:58;6.30;;;2.55;;
35675;SDS011;21790;42.668;23.298;2024-01-16T12:52:25;9.10;;;2.78;;
35675;SDS011;21790;42.668;23.298;2024-01-16T12:55:03;5.10;;;2.97;;
35675;SDS011;21790;42.668;23.298;2024-01-16T12:57:35;3.55;;;2.08;;
35675;SDS011;21790;42.668;23.298;2024-01-16T13:02:58;3.95;;;2.38;;
35675;SDS011;21790;42.668;23.298;2024-01-16T13:05:29;6.13;;;2.53;;
35675;SDS011;21790;42.668;23.298;2024-01-16T13:08:01;3.30;;;2.55;;
35675;SDS011;21790;42.668;23.298;2024-01-16T13:30:44;9.85;;;3.70;;
35675;SDS011;21790;42.668;23.298;2024-01-16T14:26:00;6.70;;;4.80;;
35675;SDS011;21790;42.668;23.298;2024-01-16T14:28:36;12.07;;;5.28;;
35675;SDS011;21790;42.668;23.298;2024-01-16T14:31:06;13.05;;;4.03;;
35675;SDS011;21790;42.668;23.298;2024-01-16T14:33:34;9.27;;;3.92;;
35675;SDS011;21790;42.668;23.298;2024-01-16T14:36:01;9.80;;;5.03;;
35675;SDS011;21790;42.668;23.298;2024-01-16T14:38:30;9.57;;;4.25;;
35675;SDS011;21790;42.668;23.298;2024-01-16T14:40:56;11.80;;;5.70;;
35675;SDS011;21790;42.668;23.298;2024-01-16T14:43:24;7.47;;;4.38;;
35675;SDS011;21790;42.668;23.298;2024-01-16T14:45:51;10.75;;;4.85;;
35675;SDS011;21790;42.668;23.298;2024-01-16T15:21:32;12.80;;;5.05;;
35675;SDS011;21790;42.668;23.298;2024-01-16T15:23:59;8.47;;;4.90;;
35675;SDS011;21790;42.668;23.298;2024-01-16T15:26:30;8.25;;;4.85;;
35675;SDS011;21790;42.668;23.298;2024-01-16T15:28:58;9.85;;;5.30;;
35675;SDS011;21790;42.668;23.298;2024-01-16T15:33:56;7.72;;;4.78;;
35675;SDS011;21790;42.668;23.298;2024-01-16T15:36:33;12.65;;;6.00;;
35675;SDS011;21790;42.668;23.298;2024-01-16T15:39:04;9.80;;;5.38;;
35675;SDS011;21790;42.668;23.298;2024-01-16T15:41:49;8.05;;;5.20;;
35675;SDS011;21790;42.668;23.298;2024-01-16T15:44:23;10.87;;;5.37;;
35675;SDS011;21790;42.668;23.298;2024-01-16T15:47:22;9.35;;;5.15;;
35675;SDS011;21790;42.668;23.298;2024-01-16T15:49:51;7.43;;;4.72;;
35675;SDS011;21790;42.668;23.298;2024-01-16T15:52:21;9.43;;;5.15;;
35675;SDS011;21790;42.668;23.298;2024-01-16T15:54:52;11.27;;;5.85;;
35675;SDS011;21790;42.668;23.298;2024-01-16T15:57:20;12.57;;;5.38;;
35675;SDS011;21790;42.668;23.298;2024-01-16T16:03:04;10.30;;;5.60;;
35675;SDS011;21790;42.668;23.298;2024-01-16T16:05:31;16.50;;;7.00;;
35675;SDS011;21790;42.668;23.298;2024-01-16T16:08:03;13.10;;;6.30;;
35675;SDS011;21790;42.668;23.298;2024-01-16T16:10:31;11.90;;;6.30;;
35675;SDS011;21790;42.668;23.298;2024-01-16T16:13:01;14.70;;;6.70;;
35675;SDS011;21790;42.668;23.298;2024-01-16T16:15:29;8.90;;;5.95;;
35675;SDS011;21790;42.668;23.298;2024-01-16T16:17:57;12.80;;;6.20;;
35675;SDS011;21790;42.668;23.298;2024-01-16T16:20:26;9.30;;;5.95;;
35675;SDS011;21790;42.668;23.298;2024-01-16T16:22:53;10.13;;;6.10;;
35675;SDS011;21790;42.668;23.298;2024-01-16T16:25:24;11.60;;;6.90;;
35675;SDS011;21790;42.668;23.298;2024-01-16T16:28:02;14.00;;;6.50;;
35675;SDS011;21790;42.668;23.298;2024-01-16T16:30:29;10.98;;;6.82;;
35675;SDS011;21790;42.668;23.298;2024-01-16T16:35:54;22.05;;;11.07;;
35675;SDS011;21790;42.668;23.298;2024-01-16T16:38:21;16.48;;;9.57;;
35675;SDS011;21790;42.668;23.298;2024-01-16T16:44:25;11.88;;;7.40;;
35675;SDS011;21790;42.668;23.298;2024-01-16T16:46:52;15.18;;;8.43;;
35675;SDS011;21790;42.668;23.298;2024-01-16T16:49:19;10.43;;;7.43;;
35675;SDS011;21790;42.668;23.298;2024-01-16T16:51:52;12.85;;;7.80;;
35675;SDS011;21790;42.668;23.298;2024-01-16T16:54:23;11.93;;;6.97;;
35675;SDS011;21790;42.668;23.298;2024-01-16T16:56:53;14.05;;;7.63;;
35675;SDS011;21790;42.668;23.298;2024-01-16T16:59:22;12.87;;;7.03;;
35675;SDS011;21790;42.668;23.298;2024-01-16T17:01:49;10.70;;;7.00;;
35675;SDS011;21790;42.668;23.298;2024-01-16T17:04:21;13.40;;;7.45;;
35675;SDS011;21790;42.668;23.298;2024-01-16T17:14:33;12.27;;;7.40;;
35675;SDS011;21790;42.668;23.298;2024-01-16T17:17:22;13.50;;;6.70;;
35675;SDS011;21790;42.668;23.298;2024-01-16T17:19:52;12.90;;;7.07;;
35675;SDS011;21790;42.668;23.298;2024-01-16T17:22:21;11.35;;;6.70;;
35675;SDS011;21790;42.668;23.298;2024-01-16T17:24:48;11.45;;;6.30;;
35675;SDS011;21790;42.668;23.298;2024-01-16T17:27:16;11.52;;;7.13;;
35675;SDS011;21790;42.668;23.298;2024-01-16T17:29:43;15.05;;;7.72;;
35675;SDS011;21790;42.668;23.298;2024-01-16T17:32:13;13.35;;;7.85;;
35675;SDS011;21790;42.668;23.298;2024-01-16T17:34:41;21.70;;;8.30;;
35675;SDS011;21790;42.668;23.298;2024-01-16T17:37:14;22.90;;;9.55;;
35675;SDS011;21790;42.668;23.298;2024-01-16T18:14:26;33.13;;;15.02;;
35675;SDS011;21790;42.668;23.298;2024-01-16T18:16:54;30.90;;;16.70;;
35675;SDS011;21790;42.668;23.298;2024-01-16T18:19:23;33.08;;;16.02;;
35675;SDS011;21790;42.668;23.298;2024-01-16T18:21:53;35.50;;;16.40;;
35675;SDS011;21790;42.668;23.298;2024-01-16T18:24:21;35.28;;;16.60;;
35675;SDS011;21790;42.668;23.298;2024-01-16T18:26:52;28.37;;;14.53;;
35675;SDS011;21790;42.668;23.298;2024-01-16T18:29:20;30.67;;;15.27;;
35675;SDS011;21790;42.668;23.298;2024-01-16T18:31:49;28.05;;;15.48;;
35675;SDS011;21790;42.668;23.298;2024-01-16T18:34:17;33.40;;;16.73;;
35675;SDS011;21790;42.668;23.298;2024-01-16T18:37:07;59.30;;;25.15;;
35675;SDS011;21790;42.668;23.298;2024-01-16T18:40:01;46.90;;;23.00;;
35675;SDS011;21790;42.668;23.298;2024-01-16T18:42:35;45.30;;;22.42;;
35675;SDS011;21790;42.668;23.298;2024-01-16T18:47:58;47.55;;;21.13;;
35675;SDS011;21790;42.668;23.298;2024-01-16T18:50:26;41.80;;;18.40;;
35675;SDS011;21790;42.668;23.298;2024-01-16T18:52:54;40.55;;;17.77;;
35675;SDS011;21790;42.668;23.298;2024-01-16T18:55:28;35.47;;;16.47;;
35675;SDS011;21790;42.668;23.298;2024-01-16T18:57:58;34.50;;;19.10;;
35675;SDS011;21790;42.668;23.298;2024-01-16T19:00:29;38.93;;;19.60;;
35675;SDS011;21790;42.668;23.298;2024-01-16T19:03:19;47.00;;;21.50;;
35675;SDS011;21790;42.668;23.298;2024-01-16T19:06:08;45.85;;;20.30;;
35675;SDS011;21790;42.668;23.298;2024-01-16T19:08:55;37.30;;;18.17;;
35675;SDS011;21790;42.668;23.298;2024-01-16T19:11:24;35.40;;;18.10;;
35675;SDS011;21790;42.668;23.298;2024-01-16T19:13:50;41.15;;;18.10;;
35675;SDS011;21790;42.668;23.298;2024-01-16T19:25:46;48.45;;;21.52;;
35675;SDS011;21790;42.668;23.298;2024-01-16T19:28:16;53.33;;;23.67;;
35675;SDS011;21790;42.668;23.298;2024-01-16T19:30:47;43.95;;;23.42;;
35675;SDS011;21790;42.668;23.298;2024-01-16T19:33:14;43.05;;;20.40;;
35675;SDS011;21790;42.668;23.298;2024-01-16T19:35:41;43.05;;;22.25;;
35675;SDS011;21790;42.668;23.298;2024-01-16T19:38:11;49.63;;;22.45;;
35675;SDS011;21790;42.668;23.298;2024-01-16T19:40:41;45.85;;;22.00;;
35675;SDS011;21790;42.668;23.298;2024-01-16T21:51:14;72.28;;;28.88;;
35675;SDS011;21790;42.668;23.298;2024-01-16T22:24:21;57.30;;;25.42;;
35675;SDS011;21790;42.668;23.298;2024-01-16T22:29:36;53.28;;;23.15;;
35675;SDS011;21790;42.668;23.298;2024-01-16T22:32:02;49.97;;;24.13;;
35675;SDS011;21790;42.668;23.298;2024-01-16T22:34:29;52.58;;;23.35;;
35675;SDS011;21790;42.668;23.298;2024-01-16T22:36:56;52.92;;;24.17;;
35675;SDS011;21790;42.668;23.298;2024-01-16T22:39:22;58.92;;;22.83;;
35675;SDS011;21790;42.668;23.298;2024-01-16T22:41:49;46.38;;;23.25;;
35675;SDS011;21790;42.668;23.298;2024-01-16T22:44:16;55.95;;;22.60;;
35675;SDS011;21790;42.668;23.298;2024-01-16T22:46:43;59.03;;;24.38;;
35675;SDS011;21790;42.668;23.298;2024-01-16T22:49:08;47.45;;;22.33;;
35675;SDS011;21790;42.668;23.298;2024-01-16T22:51:40;50.10;;;22.40;;
35675;SDS011;21790;42.668;23.298;2024-01-16T22:54:07;53.78;;;22.90;;
35675;SDS011;21790;42.668;23.298;2024-01-16T22:56:34;58.45;;;24.35;;
35675;SDS011;21790;42.668;23.298;2024-01-16T23:01:35;60.83;;;25.65;;
35675;SDS011;21790;42.668;23.298;2024-01-16T23:04:03;56.92;;;25.90;;
35675;SDS011;21790;42.668;23.298;2024-01-16T23:06:28;57.53;;;24.10;;
35675;SDS011;21790;42.668;23.298;2024-01-16T23:08:54;55.67;;;24.55;;
35675;SDS011;21790;42.668;23.298;2024-01-16T23:11:21;58.35;;;24.67;;
35675;SDS011;21790;42.668;23.298;2024-01-16T23:13:48;53.30;;;23.23;;
35675;SDS011;21790;42.668;23.298;2024-01-16T23:16:14;51.00;;;23.33;;
35675;SDS011;21790;42.668;23.298;2024-01-16T23:18:40;54.72;;;24.55;;
35675;SDS011;21790;42.668;23.298;2024-01-16T23:21:13;53.85;;;24.35;;
35675;SDS011;21790;42.668;23.298;2024-01-16T23:23:42;48.95;;;23.75;;
35675;SDS011;21790;42.668;23.298;2024-01-16T23:26:12;55.92;;;25.80;;
35675;SDS011;21790;42.668;23.298;2024-01-16T23:28:40;59.20;;;25.33;;
35675;SDS011;21790;42.668;23.298;2024-01-16T23:31:06;54.25;;;25.10;;
35675;SDS011;21790;42.668;23.298;2024-01-16T23:33:33;59.33;;;24.67;;
35675;SDS011;21790;42.668;23.298;2024-01-16T23:35:59;56.72;;;23.48;;
35675;SDS011;21790;42.668;23.298;2024-01-16T23:38:26;48.40;;;24.17;;
35675;SDS011;21790;42.668;23.298;2024-01-16T23:40:53;59.92;;;26.50;;
35675;SDS011;21790;42.668;23.298;2024-01-16T23:43:21;63.15;;;26.60;;
35675;SDS011;21790;42.668;23.298;2024-01-16T23:45:47;55.40;;;26.15;;
35675;SDS011;21790;42.668;23.298;2024-01-16T23:48:15;53.78;;;25.73;;
35675;SDS011;21790;42.668;23.298;2024-01-16T23:50:42;55.28;;;24.42;;
35675;SDS011;21790;42.668;23.298;2024-01-16T23:53:08;53.25;;;23.48;;
35675;SDS011;21790;42.668;23.298;2024-01-16T23:55:39;49.03;;;21.77;;
35675;SDS011;21790;42.668;23.298;2024-01-16T23:58:26;53.92;;;21.77;;
